富山空港の過去48時間の天気

富山空港 (Toyama)

現在時刻: 1/23 14:55 JST (1/23 05:55 UTC) 以下の時間は現地時間です。

過去48時間のMETAR気象情報
時間 風向 風速(m/s) 視程 気温(℃) 湿度(%) 気圧(hPa) 天気現象
23 14:26 西南西 10 5,000m 2 93 1008 弱いしゅう雪
23 14:18 西南西 12 3,000m 1 93 1008 弱いしゅう雪
23 14:10 西南西 11 1,800m 2 87 1008 弱いしゅう雪 弱いしゅう雨
23 14:00 西南西 9 7,000m 3 81 1007 弱いしゅう雨 弱いしゅう雪
23 13:27 西南西 9 5,000m 3 87 1007 弱いしゅう雨 弱いしゅう雪
23 13:12 西南西 8 7,000m 3 87 1006 弱いしゅう雨 弱いしゅう雪
23 13:00 西南西 8 8,000m 4 81 1006 弱いしゅう雨 弱いしゅう雪
23 12:48 西南西 9 8,000m 4 81 1006 弱いしゅう雨 弱いしゅう雪
23 12:34 西南西 9 8,000m 5 75 1006 弱いしゅう雨 弱いしゅうあられ
23 12:10 西南西 8 10km以上 6 70 1005 弱いしゅう雨
23 12:06 西南西 8 10km以上 6 70 1005 弱いしゅう雨
23 12:00 西南西 7 10km以上 6 70 1005 弱いしゅう雨 弱いしゅうあられ
23 11:31 西南西 8 10km以上 5 81 1005 弱いしゅう雨 弱いしゅう雪
23 11:21 西南西 8 10km以上 5 75 1005 弱いしゅう雨 弱いしゅう雪
23 11:10 西南西 11 10km以上 5 81 1005 弱いしゅう雨 弱いしゅう雪
23 11:00 南西 9 8,000m 5 75 1005 弱いしゅう雨 弱いしゅう雪
23 10:07 南南西 8 10km以上 6 70 1006 弱いしゅう雨
23 09:18 南南西 8 10km以上 5 75 1006 弱いしゅう雨
23 09:00 南南西 6 8,000m 4 81 1006 弱いしゅう雨
23 08:30 南南西 5 10km以上 4 81 1005 弱いしゅう雨
23 08:00 南南東 2 10km以上 3 87 1005 弱いしゅう雨
23 07:00 3 10km以上 3 87 1005 弱いしゅう雨 弱いしゅう雪
23 06:10 6 10km以上 4 70 1005 弱いしゅう雨 弱いしゅう雪
22 21:00 西北西 1 8,000m 1 100 1010 弱い雪 弱い雨
22 20:00 静穏 0 5,000m 1 100 1010 弱い雪 弱い雨
22 19:26 静穏 0 3,500m 0 100 1011 弱い雪
22 19:00 不定 1 2,500m 0 100 1011 弱い雪
22 18:00 南西 1 2,000m 0 100 1012 弱い雪
22 17:34 南西 1 1,000m 0 100 1012 弱い雪
22 17:00 南西 1 900m 0 100 1012
22 16:49 南西 1 1,000m 0 100 1012 弱い雪
22 16:00 南西 1 800m 0 100 1011
22 15:00 南南西 1 800m 0 100 1012
22 14:09 西 1 1,200m 1 93 1013 弱い雪
22 14:00 不定 1 2,000m 1 86 1013 弱い雪
22 13:48 不定 1 2,000m 1 86 1013 弱い雪
22 13:38 南西 2 3,500m 2 81 1013 弱い雪
22 13:00 南西 2 10km以上 2 87 1014 弱い雪 弱い雨
22 12:00 不定 1 10km以上 2 81 1015
22 11:00 不定 1 10km以上 2 81 1017
22 10:00 不定 1 10km以上 2 87 1018
22 09:00 不定 1 10km以上 1 93 1019
22 08:00 2 10km以上 1 93 1020
22 07:00 不定 1 10km以上 0 93 1020
22 06:10 不定 1 10km以上 0 93 1020
RJNT 230526Z 25020G32KT 220V290 5000 -SHSN FEW005 SCT010 BKN020 02/01 Q1008 RMK 1CU005 3CU010 5CU020 A2978
RJNT 230518Z 25024G37KT 220V290 3000 -SHSN FEW005 SCT007 BKN009 01/00 Q1008 RMK 1CU005 3CU007 5CU009 A2978
RJNT 230510Z 25021G42KT 1800 -SHSNRA FEW005 SCT007 BKN009 02/00 Q1008 RMK 1CU005 3CU007 5CU009 A2977
RJNT 230500Z 24017G28KT 7000 -SHRASN FEW005 SCT010 BKN020 03/00 Q1007
RJNT 230427Z 24017G27KT 220V280 5000 -SHRASN FEW005 SCT007 BKN010 03/01 Q1007 RMK 1CU005 3CU007 5CU010 A2976
RJNT 230412Z 24015KT 210V280 7000 -SHRASNGS FEW005 SCT010 BKN020 03/01 Q1006 RMK 1ST005 3CU010 6CU020 A2973 SNOW PELLETS
RJNT 230400Z 24015KT 8000 -SHRASN FEW005 SCT010 BKN020 04/01 Q1006
RJNT 230348Z 25018KT 8000 -SHRASN FEW005 SCT010 BKN020 04/01 Q1006 RMK 1ST005 3CU010 5CU020 A2972
RJNT 230334Z 25017G28KT 8000 -SHRAGS FEW005 SCT010 BKN020 FEW020CB 05/01 Q1006 RMK 1ST005 3CU010 5CU020 1CB020 A2972 CB 40KM NW MOV NE SMALL HAIL
RJNT 230310Z 25015G26KT 9999 -SHRA FEW005 SCT010 BKN030 06/01 Q1005 RMK 1ST005 3CU010 5CU030 A2970
RJNT 230306Z 25015KT 9999 -SHRA FEW005 SCT010 BKN030 06/01 Q1005 RMK 1ST005 3CU010 5CU030 A2969
RJNT 230300Z 25014KT 9999 -SHRAGS FEW005 SCT010 BKN020 FEW020CB 06/01 Q1005
RJNT 230231Z 24015G25KT 9999 -SHRASN FEW005 SCT010 BKN030 05/02 Q1005 RMK 1ST005 3CU010 5CU030 A2969
RJNT 230221Z 24015G25KT 9999 -SHRASNGS FEW005 SCT010 BKN020 FEW020CB 05/01 Q1005 RMK 1ST005 3CU010 5CU020 1CB020 A2970 CB 20KM NE MOV NE SMALL HAIL
RJNT 230210Z 25022G34KT 9999 -SHRASN FEW005 SCT010 BKN020 05/02 Q1005 RMK 1ST005 3CU010 5CU020 A2969
RJNT 230200Z 23018G32KT 8000 -SHRASNGS FEW005 SCT010 BKN020 05/01 Q1005
RJNT 230107Z 21015G25KT 180V260 9999 -SHRA FEW005 SCT015 BKN030 06/01 Q1006 RMK 1ST005 3CU015 5CU030 A2972
RJNT 230018Z 21015G25KT 9999 -SHRA FEW005 SCT015 BKN030 05/01 Q1006 RMK 1ST005 3CU015 5CU030 A2971
RJNT 230000Z 20011KT 170V230 8000 -SHRA FEW003 SCT010 BKN020 FEW020CB 04/01 Q1006
RJNT 222330Z 21010KT 9999 -SHRA FEW003 SCT020 FEW020CB BKN030 04/01 Q1005 RMK 1ST003 4CU020 1CB020 6CU030 A2969 CB 40KM NW MOV NE
RJNT 222300Z 15003KT 110V220 9999 -SHRA FEW003 SCT020 FEW020CB BKN030 03/01 Q1005
RJNT 222200Z 18005KT 140V280 9999 -SHRASN FEW010 SCT020 BKN030 03/01 Q1005
RJNT 222110Z 19012KT 9999 -SHRASN FEW010 SCT040 BKN050 04/M01 Q1005 RMK 1CU010 3CU040 6SC050 A2969
RJNT 221200Z 30002KT 8000 -SNRA FEW005 SCT050 BKN060 01/01 Q1010
RJNT 221100Z 00000KT 5000 -SNRA FEW005 SCT020 BKN030 01/01 Q1010
RJNT 221026Z 00000KT 3500 -SN FEW005 SCT010 BKN030 00/00 Q1011 RMK 1ST005 3ST010 6SC030 A2987
RJNT 221000Z VRB01KT 2500 -SN FEW005 SCT008 BKN015 00/00 Q1011
RJNT 220900Z 23002KT 2000 -SN FEW005 SCT007 BKN010 00/00 Q1012
RJNT 220834Z 23002KT 1000 -SN VV005 00/00 Q1012 RMK A2989
RJNT 220800Z 23002KT 0900 SN VV004 00/00 Q1012
RJNT 220749Z 23002KT 1000 -SN VV005 00/00 Q1012 RMK A2988
RJNT 220700Z 23001KT 0800 SN VV004 00/00 Q1011
RJNT 220600Z 20002KT 0800 SN VV004 00/M00 Q1012
RJNT 220509Z 26001KT 1200 -SN FEW005 SCT007 BKN009 01/M00 Q1013 RMK 1ST005 3ST007 6ST009 A2992
RJNT 220500Z VRB01KT 2000 -SN FEW005 SCT010 BKN015 01/M01 Q1013
RJNT 220448Z VRB01KT 2000 -SN FEW005 SCT010 BKN020 01/M01 Q1013 RMK 1ST005 3ST010 6SC020 A2992
RJNT 220438Z 22003KT 180V250 3500 -SN FEW005 SCT010 BKN020 02/M01 Q1013 RMK 1ST005 3ST010 6SC020 A2992
RJNT 220400Z 23003KT 200V270 9999 -SNRA FEW005 SCT050 BKN080 02/M00 Q1014
RJNT 220300Z VRB02KT 9999 FEW003 SCT080 OVC100 02/M01 Q1015
RJNT 220200Z VRB01KT 9999 FEW003 SCT080 BKN100 02/M01 Q1017
RJNT 220100Z VRB01KT 9999 FEW030 SCT090 OVC110 02/M00 Q1018
RJNT 220000Z VRB01KT 9999 FEW020 SCT100 BKN120 01/M00 Q1019
RJNT 212300Z 18003KT 150V210 9999 FEW020 SCT100 BKN120 01/M00 Q1020
RJNT 212200Z VRB02KT 9999 FEW020 SCT120 BKN140 00/M01 Q1020
RJNT 212110Z VRB01KT 9999 FEW010 SCT120 BKN150 00/M01 Q1020 RMK 1CU010 3AC120 6AC150 A3014